• Join FlightAware (Why Join?)
  • Login
  • US Flag 
03:29PM EDT


 

Airport Tracker/Info


-or-


 

Live Flight TrackerFlight Track Log ✈ N109WK ✈ 29-Jun-2013 ✈ KSUS - KDLH

Flight Track Log - Related Links

Times and Time Zones

All times are in EDT time to prevent confusion due to time zone crossing. See the N109WK flight status page for this flight to view local times or setup timezone preferences in your user account.

Time Position Orientation Groundspeed Altitude Reporting Facility
EDT Latitude Longitude Course Direction KTS MPH feet Rate Location/Type
06:04PM 38.6667 -90.7167 270° West 87 100 1,700  Level Gateway (St. Louis) TRACON
06:05PM 38.6811 -90.7328 319° Northwest 91 105 2,100 600 Climbing Kansas City Center
06:06PM 38.7039 -90.7336 358° North 91 105 2,800 480 Climbing Kansas City Center
06:07PM 38.7278 -90.7292 North 87 100 3,200 300 Climbing Kansas City Center
06:08PM 38.7522 -90.7250 North 87 100 3,500 300 Climbing Kansas City Center
06:09PM 38.7786 -90.7222 North 91 105 3,900 420 Climbing Kansas City Center
06:10PM 38.8050 -90.7142 13° North 94 108 4,400 360 Climbing Kansas City Center
06:11PM 38.8314 -90.7086 North 95 109 4,700 300 Climbing Kansas City Center
06:12PM 38.8631 -90.7019 North 96 110 5,100 300 Climbing Kansas City Center
06:13PM 38.8886 -90.6969 North 95 109 5,400 240 Climbing Kansas City Center
06:14PM 38.9158 -90.6922 North 96 110 5,700 240 Climbing Kansas City Center
06:15PM 38.9419 -90.6881 North 95 109 6,000 240 Climbing Kansas City Center
06:16PM 38.9667 -90.6828 North 93 107 6,200 60 Climbing Kansas City Center
06:17PM 38.9942 -90.6794 North 94 108 6,200  Level Kansas City Center
06:18PM 39.0261 -90.6733 North 106 122 6,200  Level Kansas City Center
06:19PM 39.0650 -90.6661 North 114 131 6,200  Level Kansas City Center
06:20PM 39.0967 -90.6600 North 116 133 6,200  Level Kansas City Center
06:21PM 39.1272 -90.6539 North 114 131 6,200  Level Kansas City Center
06:22PM 39.1594 -90.6481 North 115 132 6,200  Level Kansas City Center
06:23PM 39.1919 -90.6419 North 116 133 6,200  Level Kansas City Center
06:24PM 39.2233 -90.6361 North 115 132 6,200  Level Kansas City Center
06:25PM 39.2561 -90.6294 North 117 135 6,200  Level Kansas City Center
06:26PM 39.2956 -90.6217 North 119 137 6,200  Level Kansas City Center
06:27PM 39.3278 -90.6164 North 118 136 6,200  Level Kansas City Center
06:28PM 39.3603 -90.6097 North 117 135 6,200  Level Kansas City Center
06:29PM 39.3939 -90.6042 North 120 138 6,200  Level Kansas City Center
06:30PM 39.4269 -90.5994 North 120 138 6,200  Level Kansas City Center
06:31PM 39.4606 -90.5914 10° North 122 140 6,200  Level Kansas City Center
06:32PM 39.4942 -90.5847 North 122 140 6,200  Level Kansas City Center
06:33PM 39.5350 -90.5764 North 124 143 6,200  Level Kansas City Center
06:34PM 39.5692 -90.5706 North 124 143 6,200  Level Kansas City Center
06:35PM 39.6014 -90.5656 North 120 138 6,200  Level Kansas City Center
06:37PM 39.6339 -90.5589 North 118 136 6,200  Level Kansas City Center
06:38PM 39.6661 -90.5517 10° North 118 136 6,200  Level Kansas City Center
06:39PM 39.6986 -90.5453 North 118 136 6,200  Level Kansas City Center
06:40PM 39.7325 -90.5394 North 122 140 6,200  Level Kansas City Center
06:41PM 39.7669 -90.5342 North 123 142 6,200  Level Kansas City Center
06:42PM 39.8058 -90.5253 10° North 119 137 6,200  Level Kansas City Center
06:43PM 39.8400 -90.5197 North 122 140 6,200  Level Kansas City Center
06:44PM 39.8719 -90.5106 12° North 119 137 6,200  Level Kansas City Center
06:45PM 39.9053 -90.5069 North 120 138 6,200  Level Kansas City Center
06:46PM 39.9378 -90.4981 12° North 120 138 6,200  Level Kansas City Center
06:47PM 39.9711 -90.4939 North 120 138 6,200  Level Kansas City Center
06:48PM 40.0028 -90.4861 11° North 117 135 6,200  Level Kansas City Center
06:49PM 40.0342 -90.4806 North 115 132 6,200  Level Kansas City Center
06:50PM 40.0742 -90.4739 North 120 138 6,200  Level Kansas City Center
06:51PM 40.1061 -90.4661 11° North 118 136 6,200  Level Kansas City Center
06:52PM 40.1397 -90.4625 North 120 138 6,200  Level Kansas City Center
06:53PM 40.1714 -90.4550 10° North 117 135 6,200  Level Kansas City Center
06:54PM 40.2050 -90.4472 10° North 120 138 6,200  Level Kansas City Center
06:55PM 40.2358 -90.4406 North 116 133 6,200  Level Kansas City Center
06:56PM 40.2697 -90.4353 North 119 137 6,200  Level Kansas City Center
06:57PM 40.3025 -90.4292 North 119 137 6,200  Level Kansas City Center
06:58PM 40.3419 -90.4219 North 120 138 6,200  Level Kansas City Center
06:59PM 40.3733 -90.4158 North 116 133 6,200  Level Kansas City Center
07:00PM 40.4056 -90.4089 North 116 133 6,200  Level Kansas City Center
07:01PM 40.4358 -90.4031 North 114 131 6,200  Level Kansas City Center
07:02PM 40.4658 -90.3972 North 110 127 6,200  Level Kansas City Center
07:03PM 40.5036 -90.3900 North 112 129 6,200  Level Chicago Center
07:04PM 40.5350 -90.3833 North 113 130 6,200  Level Chicago Center
07:05PM 40.5681 -90.3772 North 117 135 6,200  Level Chicago Center
07:06PM 40.6006 -90.3706 North 118 136 6,200  Level Chicago Center
07:07PM 40.6328 -90.3650 North 117 135 6,200  Level Chicago Center
07:09PM 40.6631 -90.3583 North 114 131 6,200  Level Chicago Center
07:10PM 40.7006 -90.3514 North 113 130 6,200  Level Chicago Center
07:11PM 40.7317 -90.3447 North 112 129 6,200  Level Chicago Center
07:12PM 40.7639 -90.3383 North 114 131 6,200 -60 Level Chicago Center
07:13PM 40.7967 -90.3325 North 116 133 6,100 -60 Descending Chicago Center
07:14PM 40.8303 -90.3258 North 119 137 6,100  Level Chicago Center
07:15PM 40.8561 -90.3203 North 118 136 6,100  Level Chicago Center
07:16PM 40.8942 -90.3128 North 116 133 6,100  Level Chicago Center
07:17PM 40.9336 -90.3050 North 117 135 6,100  Level Chicago Center
07:18PM 40.9664 -90.2983 North 118 136 6,100  Level Chicago Center
07:19PM 40.9994 -90.2925 North 119 137 6,100  Level Chicago Center
07:21PM 41.0578 -90.2808 North 133 153 6,100  Level Chicago Center
07:22PM 41.0919 -90.2728 10° North 126 145 6,100  Level Chicago Center
07:23PM 41.1228 -90.2672 North 120 138 6,100  Level Chicago Center
07:24PM 41.1567 -90.2608 North 120 138 6,100  Level Chicago Center
07:25PM 41.1956 -90.2514 10° North 119 137 6,100  Level Chicago Center
07:26PM 41.2267 -90.2431 11° North 116 133 6,100  Level Chicago Center
07:27PM 41.2592 -90.2292 18° North 119 137 6,100  Level Chicago Center
07:28PM 41.2919 -90.2278 North 119 137 6,100  Level Chicago Center
07:29PM 41.3219 -90.2167 16° North 117 135 6,100  Level Chicago Center
07:30PM 41.3522 -90.1869 36° Northeast 120 138 6,100  Level Chicago Center
07:31PM 41.3767 -90.1675 31° Northeast 116 133 6,100  Level Chicago Center
07:32PM 41.4064 -90.1394 35° Northeast 111 128 6,100  Level Chicago Center
07:33PM 41.4344 -90.1136 35° Northeast 117 135 6,100  Level Chicago Center
07:34PM 41.4622 -90.0864 36° Northeast 122 140 6,100  Level Chicago Center
07:35PM 41.4878 -90.0622 35° Northeast 117 135 6,100  Level Chicago Center
07:36PM 41.5114 -90.0378 38° Northeast 111 128 6,100  Level Chicago Center
07:37PM 41.5361 -90.0089 41° Northeast 116 133 6,100  Level Chicago Center
07:38PM 41.5592 -89.9786 44° Northeast 117 135 6,100  Level Chicago Center
07:39PM 41.5822 -89.9503 43° Northeast 112 129 6,100  Level Chicago Center
07:40PM 41.6094 -89.9156 44° Northeast 112 129 6,100  Level Chicago Center
07:41PM 41.6331 -89.8844 45° Northeast 114 131 6,100  Level Chicago Center
07:42PM 41.6581 -89.8531 43° Northeast 123 142 6,100  Level Chicago Center
07:43PM 41.6833 -89.8247 40° Northeast 121 139 6,100  Level Chicago Center
07:44PM 41.7081 -89.7961 41° Northeast 119 137 6,100  Level Chicago Center
07:46PM 41.7475 -89.7949 North  Level FlightAware Approximate
07:46PM 41.7575 -89.7400 North 118 136 6,100  Level Chicago Center
07:47PM 41.7819 -89.7067 45° Northeast 111 128 6,100  Level Chicago Center
07:48PM 41.8064 -89.6786 41° Northeast 111 128 6,100  Level Chicago Center
07:49PM 41.8292 -89.6522 41° Northeast 113 130 6,100  Level Chicago Center
07:51PM 41.8539 -89.6242 40° Northeast 118 136 6,100  Level Chicago Center
07:52PM 41.8822 -89.5928 40° Northeast 114 131 6,100  Level Chicago Center
07:53PM 41.9156 -89.6150 334° Northwest 129 148 6,100  Level Chicago Center
07:54PM 41.9469 -89.6267 345° North 119 137 6,100  Level Chicago Center
07:55PM 41.9786 -89.6444 337° Northwest 122 140 6,100  Level Chicago Center
07:56PM 42.0108 -89.6589 342° North 122 140 6,100  Level Chicago Center
07:57PM 42.0419 -89.6736 341° North 118 136 6,100  Level Chicago Center
07:58PM 42.0797 -89.6928 339° North 123 142 6,100  Level Chicago Center
07:59PM 42.1142 -89.7114 338° Northwest 132 152 6,100  Level Chicago Center
08:00PM 42.1461 -89.7256 342° North 123 142 6,100  Level Chicago Center
08:01PM 42.1806 -89.7431 339° North 129 148 6,100  Level Chicago Center
08:02PM 42.2122 -89.7575 341° North 122 140 6,100  Level Chicago Center
08:03PM 42.2458 -89.7747 339° North 125 144 6,100  Level Chicago Center
08:04PM 42.2803 -89.7903 342° North 130 150 6,100  Level Chicago Center
08:05PM 42.3197 -89.8106 339° North 130 150 6,100  Level Chicago Center
08:06PM 42.3542 -89.8258 342° North 130 150 6,100  Level Chicago Center
08:07PM 42.3883 -89.8431 340° North 133 153 6,100  Level Chicago Center
08:08PM 42.4214 -89.8600 339° North 131 151 6,100  Level Chicago Center
08:09PM 42.4567 -89.8767 341° North 134 154 6,100  Level Chicago Center
08:10PM 42.4900 -89.8922 341° North 130 150 6,100  Level Chicago Center
08:11PM 42.5253 -89.9108 339° North 134 154 6,100  Level Chicago Center
08:12PM 42.5675 -89.9300 342° North 135 155 6,200  Climbing Chicago Center
08:13PM 42.6011 -89.9469 340° North 131 151 6,200  Level Chicago Center
08:14PM 42.6364 -89.9633 341° North 133 153 6,200  Level Chicago Center
08:15PM 42.6700 -89.9808 339° North 131 151 6,200  Level Chicago Center
08:16PM 42.7036 -89.9975 340° North 132 152 6,200  Level Chicago Center
08:17PM 42.7447 -90.0175 340° North 132 152 6,200  Level Chicago Center
08:18PM 42.7847 -90.0378 340° North 130 150 6,200  Level Chicago Center
08:19PM 42.8169 -90.0528 341° North 127 146 6,200  Level Chicago Center
08:21PM 42.8503 -90.0689 340° North 126 145 6,200 -60 Level Chicago Center
08:22PM 42.8839 -90.0861 339° North 129 148 6,100  Descending Chicago Center
08:23PM 42.9175 -90.1025 340° North 130 150 6,200  Climbing Chicago Center
08:24PM 42.9567 -90.1228 339° North 128 147 6,200  Level Chicago Center
08:25PM 42.9908 -90.1392 341° North 130 150 6,200  Level Chicago Center
08:26PM 43.0239 -90.1564 339° North 129 148 6,200  Level Chicago Center
08:27PM 43.0578 -90.1719 341° North 129 148 6,200  Level Chicago Center
08:28PM 43.0906 -90.1892 339° North 128 147 6,200  Level Chicago Center
08:29PM 43.1233 -90.2056 340° North 127 146 6,200  Level Chicago Center
08:30PM 43.1603 -90.2242 340° North 128 147 6,200  Level Chicago Center
08:31PM 43.1953 -90.2403 341° North 130 150 6,200  Level Chicago Center
08:32PM 43.2294 -90.2578 340° North 130 150 6,200  Level Chicago Center
08:33PM 43.2683 -90.2783 339° North 129 148 6,200  Level Chicago Center
08:34PM 43.2989 -90.2925 341° North 130 150 6,300  Climbing Chicago Center
08:35PM 43.3317 -90.3094 339° North 130 150 6,300  Level Chicago Center
08:36PM 43.3731 -90.3306 340° North 132 152 6,300  Level Chicago Center
08:37PM 43.4064 -90.3472 340° North 130 150 6,300 -60 Level Chicago Center
08:38PM 43.4386 -90.3650 338° Northwest 130 150 6,200 -60 Descending Chicago Center
08:39PM 43.4719 -90.3828 339° North 128 147 6,200  Level Chicago Center
08:40PM 43.5097 -90.3994 342° North 134 154 6,200  Level Chicago Center
08:41PM 43.5422 -90.4156 340° North 128 147 6,200  Level Chicago Center
08:42PM 43.5814 -90.4356 340° North 128 147 6,200  Level Chicago Center
08:43PM 43.6139 -90.4525 339° North 126 145 6,200  Level Chicago Center
08:44PM 43.6450 -90.4675 341° North 123 142 6,200  Level Chicago Center
08:45PM 43.6772 -90.4847 339° North 123 142 6,200  Level Chicago Center
08:46PM 43.7086 -90.5011 339° North 124 143 6,200  Level Chicago Center
08:47PM 43.7472 -90.5208 340° North 124 143 6,200  Level Chicago Center
08:48PM 43.7781 -90.5364 340° North 122 140 6,200  Level Chicago Center
08:49PM 43.8114 -90.5528 340° North 125 144 6,200  Level Chicago Center
08:50PM 43.8458 -90.5697 340° North 129 148 6,200  Level Chicago Center
08:51PM 43.8781 -90.5883 337° Northwest 127 146 6,200  Level Chicago Center
08:52PM 43.9111 -90.6042 341° North 127 146 6,200  Level Chicago Center
08:53PM 43.9531 -90.6269 339° North 131 151 6,200  Level Chicago Center
08:54PM 43.9875 -90.6481 336° Northwest 135 155 6,200  Level Chicago Center
08:55PM 44.0214 -90.6658 339° North 134 154 6,200  Level Chicago Center
08:56PM 44.0547 -90.6817 341° North 132 152 6,200  Level Chicago Center
08:57PM 44.0853 -90.6933 345° North 124 143 6,200  Level Chicago Center
08:59PM 44.1189 -90.7125 338° Northwest 127 146 6,200  Level Chicago Center
09:00PM 44.1606 -90.7331 341° North 132 152 6,200  Level Chicago Center
09:01PM 44.1953 -90.7497 341° North 132 152 6,200  Level Chicago Center
09:02PM 44.2436 -90.7750 339° North 132 152 6,200  Level Minneapolis Center
09:03PM 44.2797 -90.7933 340° North 133 153 6,200  Level Minneapolis Center
09:04PM 44.3158 -90.8128 339° North 134 154 6,300  Climbing Minneapolis Center
09:05PM 44.3519 -90.8319 339° North 133 153 6,300  Level Minneapolis Center
09:06PM 44.3881 -90.8506 340° North 130 150 6,300  Level Minneapolis Center
09:07PM 44.4214 -90.8683 339° North 133 153 6,300 -60 Level Minneapolis Center
09:08PM 44.4578 -90.8875 339° North 133 153 6,200 -60 Descending Minneapolis Center
09:09PM 44.4933 -90.9056 340° North 130 150 6,200  Level Minneapolis Center
09:10PM 44.5281 -90.9244 339° North 129 148 6,200  Level Minneapolis Center
09:11PM 44.5611 -90.9411 340° North 131 151 6,200  Level Minneapolis Center
09:12PM 44.5956 -90.9600 339° North 128 147 6,200  Level Minneapolis Center
09:13PM 44.6311 -90.9778 340° North 130 150 6,200  Level Minneapolis Center
09:14PM 44.6669 -90.9975 339° North 131 151 6,200  Level Minneapolis Center
09:15PM 44.7031 -91.0167 339° North 132 152 6,200  Level Minneapolis Center
09:16PM 44.7356 -91.0331 340° North 130 150 6,200  Level Minneapolis Center
09:17PM 44.7703 -91.0517 339° North 127 146 6,200  Level Minneapolis Center
09:18PM 44.8058 -91.0703 340° North 131 151 6,200  Level Minneapolis Center
09:19PM 44.8408 -91.0903 338° Northwest 130 150 6,200  Level Minneapolis Center
09:21PM 44.8742 -91.1067 341° North 132 152 6,200  Level Minneapolis Center
09:22PM 44.9092 -91.1264 338° Northwest 130 150 6,200  Level Minneapolis Center
09:23PM 44.9453 -91.1464 339° North 133 153 6,200  Level Minneapolis Center
09:24PM 44.9828 -91.1647 341° North 135 155 6,200  Level Minneapolis Center
09:25PM 45.0194 -91.1836 340° North 135 155 6,200  Level Minneapolis Center
09:26PM 45.0522 -91.2028 338° Northwest 133 153 6,300  Climbing Minneapolis Center
09:27PM 45.0886 -91.2211 340° North 133 153 6,200 -60 Descending Minneapolis Center
09:28PM 45.1222 -91.2397 339° North 134 154 6,200  Level Minneapolis Center
09:29PM 45.1553 -91.2572 340° North 132 152 6,300  Climbing Minneapolis Center
09:30PM 45.1903 -91.2750 340° North 133 153 6,300 -60 Level Minneapolis Center
09:31PM 45.2300 -91.2969 339° North 131 151 6,200 -60 Descending Minneapolis Center
09:32PM 45.2639 -91.3153 339° North 130 150 6,200  Level Minneapolis Center
09:33PM 45.2975 -91.3342 338° Northwest 131 151 6,200  Level Minneapolis Center
09:34PM 45.3394 -91.3550 341° North 132 152 6,200  Level Minneapolis Center
09:35PM 45.3728 -91.3731 339° North 131 151 6,200  Level Minneapolis Center
09:36PM 45.4067 -91.3919 339° North 131 151 6,200  Level Minneapolis Center
09:37PM 45.4456 -91.4128 339° North 129 148 6,200  Level Minneapolis Center
09:38PM 45.4856 -91.4339 340° North 128 147 6,200  Level Minneapolis Center
09:39PM 45.5181 -91.4514 339° North 127 146 6,200  Level Minneapolis Center
09:41PM 45.5519 -91.4703 339° North 128 147 6,200  Level Minneapolis Center
09:42PM 45.5922 -91.4928 339° North 129 148 6,200  Level Minneapolis Center
09:43PM 45.6283 -91.5119 340° North 130 150 6,200  Level Minneapolis Center
09:45PM 45.6992 -91.5517 339° North 144 166 6,200  Level Minneapolis Center
09:46PM 45.7347 -91.5719 338° Northwest 142 163 6,200  Level Minneapolis Center
09:47PM 45.7697 -91.5908 339° North 128 147 6,200  Level Minneapolis Center
09:48PM 45.7911 -91.5964 350° North 121 139 6,200  Level Minneapolis Center
09:49PM 45.8289 -91.6128 343° North 115 132 6,300  Climbing Minneapolis Center
09:50PM 45.8656 -91.6408 332° Northwest 122 140 6,300  Level Minneapolis Center
09:51PM 45.9028 -91.6644 336° Northwest 134 154 6,300  Level Minneapolis Center
09:52PM 45.9364 -91.6822 340° North 135 155 6,300  Level Minneapolis Center
09:53PM 45.9689 -91.6981 341° North 132 152 6,300  Level Minneapolis Center
09:54PM 46.0019 -91.7150 340° North 129 148 6,300  Level Minneapolis Center
09:55PM 46.0433 -91.7389 338° Northwest 130 150 6,300  Level Minneapolis Center
09:56PM 46.0767 -91.7586 338° Northwest 131 151 6,300  Level Minneapolis Center
09:57PM 46.1094 -91.7764 339° North 130 150 6,300  Level Minneapolis Center
09:58PM 46.1439 -91.7947 340° North 128 147 6,300 -60 Level Minneapolis Center
09:59PM 46.1636 -91.8067 337° Northwest 128 147 6,200 -60 Descending Minneapolis Center
10:00PM 46.2106 -91.8322 339° North 119 137 6,200  Level Minneapolis Center
10:01PM 46.2433 -91.8511 338° Northwest 126 145 6,200  Level Minneapolis Center
10:02PM 46.2756 -91.8694 339° North 126 145 6,200  Level Minneapolis Center
10:03PM 46.3081 -91.8875 339° North 125 144 6,200 -120 Level Minneapolis Center
10:04PM 46.3406 -91.9075 337° Northwest 126 145 6,000 -300 Descending Minneapolis Center
10:05PM 46.3781 -91.9353 333° Northwest 129 148 5,700 -420 Descending Minneapolis Center
10:06PM 46.4153 -91.9739 324° Northwest 140 161 5,200 -420 Descending Minneapolis Center
10:07PM 46.4483 -92.0067 326° Northwest 143 165 4,900 -360 Descending Minneapolis Center
10:08PM 46.4786 -92.0444 319° Northwest 144 166 4,500 -420 Descending Minneapolis Center
10:09PM 46.5094 -92.0861 317° Northwest 147 169 4,100 -420 Descending Minneapolis Center
10:10PM 46.5386 -92.1253 317° Northwest 146 168 3,700 -420 Descending Minneapolis Center
10:11PM 46.5700 -92.1642 320° Northwest 147 169 3,300 -300 Descending Minneapolis Center
10:12PM 46.6056 -92.1867 337° Northwest 143 165 3,200 -60 Descending Minneapolis Center
10:13PM 46.6453 -92.1853 North 140 161 3,200  Level Minneapolis Center
10:14PM 46.6825 -92.1931 352° North 138 159 3,300  Climbing Minneapolis Center
10:15PM 46.7164 -92.2025 349° North 133 153 3,300 -180 Level Minneapolis Center
10:16PM 46.7539 -92.2147 347° North 133 153 3,000 -420 Descending Minneapolis Center
10:17PM 46.7981 -92.2169 358° North 134 154 2,500 -540 Descending Minneapolis Center
10:18PM 46.8242 -92.1961 29° Northeast 119 137 2,000 -420 Descending Minneapolis Center
10:19PM 46.8442 -92.1758 35° Northeast 111 128 1,700 -300 Descending Minneapolis Center
10:21PM 46.8421 -92.1936 260° West  Level Estimated
10:28PM 46.8421 -92.1936 13° North  Level Estimated
10:29PM 46.8421 -92.1936 13° North  Level Estimated